sensor_id;sensor_type;location;lat;lon;timestamp;P1;durP1;ratioP1;P2;durP2;ratioP2
18822;SDS011;9540;51.550;7.980;2023-02-12T00:01:12;153.98;;;55.55;;
18822;SDS011;9540;51.550;7.980;2023-02-12T00:03:40;143.80;;;55.70;;
18822;SDS011;9540;51.550;7.980;2023-02-12T00:06:08;162.90;;;57.05;;
18822;SDS011;9540;51.550;7.980;2023-02-12T00:08:36;151.05;;;54.83;;
18822;SDS011;9540;51.550;7.980;2023-02-12T00:11:07;149.35;;;55.28;;
18822;SDS011;9540;51.550;7.980;2023-02-12T00:13:36;157.68;;;57.15;;
18822;SDS011;9540;51.550;7.980;2023-02-12T00:16:04;157.95;;;54.67;;
18822;SDS011;9540;51.550;7.980;2023-02-12T00:21:01;158.80;;;55.03;;
18822;SDS011;9540;51.550;7.980;2023-02-12T00:23:28;145.10;;;53.70;;
18822;SDS011;9540;51.550;7.980;2023-02-12T00:25:55;148.57;;;55.33;;
18822;SDS011;9540;51.550;7.980;2023-02-12T00:28:23;161.07;;;55.00;;
18822;SDS011;9540;51.550;7.980;2023-02-12T00:30:50;165.93;;;55.00;;
18822;SDS011;9540;51.550;7.980;2023-02-12T00:33:17;165.50;;;54.38;;
18822;SDS011;9540;51.550;7.980;2023-02-12T00:35:44;155.82;;;56.22;;
18822;SDS011;9540;51.550;7.980;2023-02-12T00:38:21;153.60;;;53.72;;
18822;SDS011;9540;51.550;7.980;2023-02-12T00:40:48;154.70;;;54.40;;
18822;SDS011;9540;51.550;7.980;2023-02-12T00:43:15;161.30;;;54.58;;
18822;SDS011;9540;51.550;7.980;2023-02-12T00:45:43;154.80;;;53.17;;
18822;SDS011;9540;51.550;7.980;2023-02-12T00:48:10;148.35;;;53.33;;
18822;SDS011;9540;51.550;7.980;2023-02-12T00:50:38;147.48;;;53.72;;
18822;SDS011;9540;51.550;7.980;2023-02-12T00:53:05;160.05;;;53.97;;
18822;SDS011;9540;51.550;7.980;2023-02-12T00:55:34;147.98;;;51.67;;
18822;SDS011;9540;51.550;7.980;2023-02-12T00:58:01;136.40;;;51.53;;
18822;SDS011;9540;51.550;7.980;2023-02-12T01:00:28;141.32;;;50.45;;
18822;SDS011;9540;51.550;7.980;2023-02-12T01:02:55;135.38;;;51.33;;
18822;SDS011;9540;51.550;7.980;2023-02-12T01:05:22;140.35;;;50.88;;
18822;SDS011;9540;51.550;7.980;2023-02-12T01:07:50;139.32;;;49.92;;
18822;SDS011;9540;51.550;7.980;2023-02-12T01:10:18;140.05;;;51.03;;
18822;SDS011;9540;51.550;7.980;2023-02-12T01:12:47;136.52;;;49.65;;
18822;SDS011;9540;51.550;7.980;2023-02-12T01:15:15;127.40;;;50.20;;
18822;SDS011;9540;51.550;7.980;2023-02-12T01:17:43;141.20;;;50.30;;
18822;SDS011;9540;51.550;7.980;2023-02-12T01:20:12;128.93;;;50.15;;
18822;SDS011;9540;51.550;7.980;2023-02-12T01:22:41;132.00;;;49.67;;
18822;SDS011;9540;51.550;7.980;2023-02-12T01:25:08;138.73;;;50.35;;
18822;SDS011;9540;51.550;7.980;2023-02-12T01:27:36;130.45;;;51.28;;
18822;SDS011;9540;51.550;7.980;2023-02-12T01:30:05;135.18;;;50.25;;
18822;SDS011;9540;51.550;7.980;2023-02-12T01:32:34;132.65;;;50.55;;
18822;SDS011;9540;51.550;7.980;2023-02-12T01:35:01;140.48;;;53.83;;
18822;SDS011;9540;51.550;7.980;2023-02-12T01:37:29;136.73;;;50.83;;
18822;SDS011;9540;51.550;7.980;2023-02-12T01:39:56;138.15;;;53.03;;
18822;SDS011;9540;51.550;7.980;2023-02-12T01:42:23;134.43;;;50.45;;
18822;SDS011;9540;51.550;7.980;2023-02-12T01:48:12;141.88;;;51.50;;
18822;SDS011;9540;51.550;7.980;2023-02-12T01:50:41;129.23;;;49.00;;
18822;SDS011;9540;51.550;7.980;2023-02-12T01:53:11;138.43;;;52.25;;
18822;SDS011;9540;51.550;7.980;2023-02-12T01:55:44;127.25;;;47.75;;
18822;SDS011;9540;51.550;7.980;2023-02-12T01:58:16;136.45;;;49.33;;
18822;SDS011;9540;51.550;7.980;2023-02-12T02:00:46;122.50;;;45.53;;
18822;SDS011;9540;51.550;7.980;2023-02-12T02:03:13;129.07;;;48.35;;
18822;SDS011;9540;51.550;7.980;2023-02-12T02:05:42;132.07;;;48.08;;
18822;SDS011;9540;51.550;7.980;2023-02-12T02:08:12;122.13;;;48.97;;
18822;SDS011;9540;51.550;7.980;2023-02-12T02:10:40;135.82;;;50.13;;
18822;SDS011;9540;51.550;7.980;2023-02-12T02:13:07;143.77;;;52.15;;
18822;SDS011;9540;51.550;7.980;2023-02-12T02:15:55;141.60;;;51.33;;
18822;SDS011;9540;51.550;7.980;2023-02-12T02:18:27;127.30;;;50.05;;
18822;SDS011;9540;51.550;7.980;2023-02-12T02:21:18;122.93;;;48.38;;
18822;SDS011;9540;51.550;7.980;2023-02-12T02:24:15;127.68;;;45.92;;
18822;SDS011;9540;51.550;7.980;2023-02-12T02:27:16;114.63;;;45.25;;
18822;SDS011;9540;51.550;7.980;2023-02-12T02:32:54;117.65;;;44.83;;
18822;SDS011;9540;51.550;7.980;2023-02-12T02:35:31;120.35;;;45.78;;
18822;SDS011;9540;51.550;7.980;2023-02-12T02:38:06;120.32;;;45.35;;
18822;SDS011;9540;51.550;7.980;2023-02-12T02:40:43;119.00;;;45.53;;
18822;SDS011;9540;51.550;7.980;2023-02-12T02:43:17;121.70;;;45.00;;
18822;SDS011;9540;51.550;7.980;2023-02-12T02:45:50;102.68;;;41.80;;
18822;SDS011;9540;51.550;7.980;2023-02-12T02:48:22;116.20;;;45.67;;
18822;SDS011;9540;51.550;7.980;2023-02-12T02:50:54;108.45;;;45.08;;
18822;SDS011;9540;51.550;7.980;2023-02-12T02:53:25;109.00;;;44.00;;
18822;SDS011;9540;51.550;7.980;2023-02-12T02:55:57;107.55;;;41.78;;
18822;SDS011;9540;51.550;7.980;2023-02-12T02:58:28;118.00;;;45.10;;
18822;SDS011;9540;51.550;7.980;2023-02-12T03:01:03;111.30;;;43.65;;
18822;SDS011;9540;51.550;7.980;2023-02-12T03:03:33;112.05;;;43.47;;
18822;SDS011;9540;51.550;7.980;2023-02-12T03:06:06;98.40;;;41.55;;
18822;SDS011;9540;51.550;7.980;2023-02-12T03:08:38;110.50;;;42.90;;
18822;SDS011;9540;51.550;7.980;2023-02-12T03:11:10;108.05;;;42.58;;
18822;SDS011;9540;51.550;7.980;2023-02-12T03:13:41;114.85;;;42.88;;
18822;SDS011;9540;51.550;7.980;2023-02-12T03:16:14;104.38;;;40.63;;
18822;SDS011;9540;51.550;7.980;2023-02-12T03:18:50;104.43;;;41.75;;
18822;SDS011;9540;51.550;7.980;2023-02-12T03:21:21;100.30;;;41.78;;
18822;SDS011;9540;51.550;7.980;2023-02-12T03:23:54;105.85;;;43.95;;
18822;SDS011;9540;51.550;7.980;2023-02-12T03:26:29;111.40;;;44.30;;
18822;SDS011;9540;51.550;7.980;2023-02-12T03:29:02;104.13;;;42.10;;
18822;SDS011;9540;51.550;7.980;2023-02-12T03:31:32;108.45;;;44.50;;
18822;SDS011;9540;51.550;7.980;2023-02-12T03:34:08;120.70;;;46.47;;
18822;SDS011;9540;51.550;7.980;2023-02-12T03:36:46;109.22;;;44.05;;
18822;SDS011;9540;51.550;7.980;2023-02-12T03:39:19;106.25;;;43.83;;
18822;SDS011;9540;51.550;7.980;2023-02-12T03:41:55;103.63;;;42.10;;
18822;SDS011;9540;51.550;7.980;2023-02-12T03:44:30;98.22;;;40.08;;
18822;SDS011;9540;51.550;7.980;2023-02-12T03:47:12;110.78;;;42.15;;
18822;SDS011;9540;51.550;7.980;2023-02-12T03:49:47;90.53;;;39.00;;
18822;SDS011;9540;51.550;7.980;2023-02-12T03:52:19;96.72;;;39.38;;
18822;SDS011;9540;51.550;7.980;2023-02-12T03:54:46;111.68;;;42.55;;
18822;SDS011;9540;51.550;7.980;2023-02-12T03:57:14;89.38;;;38.33;;
18822;SDS011;9540;51.550;7.980;2023-02-12T03:59:44;83.47;;;35.63;;
18822;SDS011;9540;51.550;7.980;2023-02-12T04:02:13;89.72;;;37.28;;
18822;SDS011;9540;51.550;7.980;2023-02-12T04:04:42;86.57;;;36.53;;
18822;SDS011;9540;51.550;7.980;2023-02-12T04:07:10;92.88;;;38.20;;
18822;SDS011;9540;51.550;7.980;2023-02-12T04:09:38;83.55;;;36.03;;
18822;SDS011;9540;51.550;7.980;2023-02-12T04:12:08;92.15;;;37.65;;
18822;SDS011;9540;51.550;7.980;2023-02-12T04:14:52;85.72;;;36.60;;
18822;SDS011;9540;51.550;7.980;2023-02-12T04:17:30;82.22;;;35.80;;
18822;SDS011;9540;51.550;7.980;2023-02-12T04:20:07;81.15;;;35.92;;
18822;SDS011;9540;51.550;7.980;2023-02-12T04:22:44;99.40;;;41.25;;
18822;SDS011;9540;51.550;7.980;2023-02-12T04:25:20;89.82;;;38.92;;
18822;SDS011;9540;51.550;7.980;2023-02-12T04:28:05;84.45;;;38.17;;
18822;SDS011;9540;51.550;7.980;2023-02-12T04:30:39;89.53;;;38.58;;
18822;SDS011;9540;51.550;7.980;2023-02-12T04:33:13;89.20;;;35.80;;
18822;SDS011;9540;51.550;7.980;2023-02-12T04:35:46;90.90;;;36.50;;
18822;SDS011;9540;51.550;7.980;2023-02-12T04:38:19;84.63;;;35.50;;
18822;SDS011;9540;51.550;7.980;2023-02-12T04:40:51;93.70;;;37.65;;
18822;SDS011;9540;51.550;7.980;2023-02-12T04:43:25;90.88;;;37.92;;
18822;SDS011;9540;51.550;7.980;2023-02-12T04:45:53;94.75;;;40.78;;
18822;SDS011;9540;51.550;7.980;2023-02-12T04:48:22;89.10;;;37.42;;
18822;SDS011;9540;51.550;7.980;2023-02-12T04:50:49;93.35;;;38.90;;
18822;SDS011;9540;51.550;7.980;2023-02-12T04:53:16;89.13;;;38.38;;
18822;SDS011;9540;51.550;7.980;2023-02-12T04:55:43;84.22;;;35.95;;
18822;SDS011;9540;51.550;7.980;2023-02-12T04:58:11;84.15;;;37.42;;
18822;SDS011;9540;51.550;7.980;2023-02-12T05:00:39;96.80;;;40.63;;
18822;SDS011;9540;51.550;7.980;2023-02-12T05:03:06;88.28;;;38.28;;
18822;SDS011;9540;51.550;7.980;2023-02-12T05:05:34;84.57;;;36.88;;
18822;SDS011;9540;51.550;7.980;2023-02-12T05:08:02;84.97;;;34.92;;
18822;SDS011;9540;51.550;7.980;2023-02-12T05:10:29;85.20;;;37.22;;
18822;SDS011;9540;51.550;7.980;2023-02-12T05:12:56;96.13;;;38.55;;
18822;SDS011;9540;51.550;7.980;2023-02-12T05:15:23;96.82;;;39.03;;
18822;SDS011;9540;51.550;7.980;2023-02-12T05:17:50;118.30;;;44.55;;
18822;SDS011;9540;51.550;7.980;2023-02-12T05:20:17;94.93;;;39.17;;
18822;SDS011;9540;51.550;7.980;2023-02-12T05:22:46;99.35;;;39.25;;
18822;SDS011;9540;51.550;7.980;2023-02-12T05:25:17;110.82;;;39.88;;
18822;SDS011;9540;51.550;7.980;2023-02-12T05:27:44;90.40;;;37.22;;
18822;SDS011;9540;51.550;7.980;2023-02-12T05:30:11;94.05;;;37.70;;
18822;SDS011;9540;51.550;7.980;2023-02-12T05:32:39;93.55;;;38.08;;
18822;SDS011;9540;51.550;7.980;2023-02-12T05:35:06;90.03;;;35.87;;
18822;SDS011;9540;51.550;7.980;2023-02-12T05:37:34;91.95;;;35.92;;
18822;SDS011;9540;51.550;7.980;2023-02-12T05:40:04;104.95;;;41.60;;
18822;SDS011;9540;51.550;7.980;2023-02-12T05:42:32;94.07;;;38.10;;
18822;SDS011;9540;51.550;7.980;2023-02-12T05:45:00;91.55;;;37.72;;
18822;SDS011;9540;51.550;7.980;2023-02-12T05:47:27;90.78;;;36.35;;
18822;SDS011;9540;51.550;7.980;2023-02-12T05:49:54;91.25;;;36.33;;
18822;SDS011;9540;51.550;7.980;2023-02-12T05:52:21;98.10;;;38.47;;
18822;SDS011;9540;51.550;7.980;2023-02-12T05:54:48;99.18;;;39.00;;
18822;SDS011;9540;51.550;7.980;2023-02-12T05:57:17;97.03;;;37.38;;
18822;SDS011;9540;51.550;7.980;2023-02-12T05:59:44;112.45;;;41.63;;
18822;SDS011;9540;51.550;7.980;2023-02-12T06:02:11;102.83;;;39.40;;
18822;SDS011;9540;51.550;7.980;2023-02-12T06:04:38;103.45;;;41.03;;
18822;SDS011;9540;51.550;7.980;2023-02-12T06:07:05;110.20;;;38.85;;
18822;SDS011;9540;51.550;7.980;2023-02-12T06:09:32;97.57;;;39.80;;
18822;SDS011;9540;51.550;7.980;2023-02-12T06:12:00;111.93;;;42.37;;
18822;SDS011;9540;51.550;7.980;2023-02-12T06:14:29;104.20;;;41.60;;
18822;SDS011;9540;51.550;7.980;2023-02-12T06:16:56;158.32;;;50.83;;
18822;SDS011;9540;51.550;7.980;2023-02-12T06:19:23;170.57;;;55.08;;
18822;SDS011;9540;51.550;7.980;2023-02-12T06:21:50;141.27;;;49.88;;
18822;SDS011;9540;51.550;7.980;2023-02-12T06:24:17;120.13;;;47.30;;
18822;SDS011;9540;51.550;7.980;2023-02-12T06:26:44;98.90;;;40.10;;
18822;SDS011;9540;51.550;7.980;2023-02-12T06:29:14;102.35;;;40.95;;
18822;SDS011;9540;51.550;7.980;2023-02-12T06:31:42;99.47;;;38.63;;
18822;SDS011;9540;51.550;7.980;2023-02-12T06:34:10;102.47;;;40.28;;
18822;SDS011;9540;51.550;7.980;2023-02-12T06:36:39;119.00;;;45.20;;
18822;SDS011;9540;51.550;7.980;2023-02-12T06:39:09;102.43;;;41.13;;
18822;SDS011;9540;51.550;7.980;2023-02-12T06:41:36;105.95;;;42.13;;
18822;SDS011;9540;51.550;7.980;2023-02-12T06:44:03;100.80;;;41.35;;
18822;SDS011;9540;51.550;7.980;2023-02-12T06:46:31;91.60;;;37.30;;
18822;SDS011;9540;51.550;7.980;2023-02-12T06:49:00;98.13;;;39.47;;
18822;SDS011;9540;51.550;7.980;2023-02-12T06:51:27;91.97;;;36.70;;
18822;SDS011;9540;51.550;7.980;2023-02-12T06:53:55;89.30;;;37.55;;
18822;SDS011;9540;51.550;7.980;2023-02-12T06:56:23;82.53;;;35.70;;
18822;SDS011;9540;51.550;7.980;2023-02-12T06:58:52;96.03;;;38.42;;
18822;SDS011;9540;51.550;7.980;2023-02-12T07:01:21;96.38;;;38.03;;
18822;SDS011;9540;51.550;7.980;2023-02-12T07:03:51;91.07;;;36.30;;
18822;SDS011;9540;51.550;7.980;2023-02-12T07:06:21;89.40;;;37.33;;
18822;SDS011;9540;51.550;7.980;2023-02-12T07:08:48;88.60;;;37.95;;
18822;SDS011;9540;51.550;7.980;2023-02-12T07:11:17;105.07;;;41.40;;
18822;SDS011;9540;51.550;7.980;2023-02-12T07:13:44;120.25;;;45.88;;
18822;SDS011;9540;51.550;7.980;2023-02-12T07:16:18;104.60;;;41.03;;
18822;SDS011;9540;51.550;7.980;2023-02-12T07:18:47;99.40;;;40.25;;
18822;SDS011;9540;51.550;7.980;2023-02-12T07:21:15;101.15;;;38.03;;
18822;SDS011;9540;51.550;7.980;2023-02-12T07:23:46;101.10;;;41.35;;
18822;SDS011;9540;51.550;7.980;2023-02-12T07:26:14;95.55;;;39.13;;
18822;SDS011;9540;51.550;7.980;2023-02-12T07:28:42;93.80;;;37.40;;
18822;SDS011;9540;51.550;7.980;2023-02-12T07:31:10;97.80;;;40.20;;
18822;SDS011;9540;51.550;7.980;2023-02-12T07:33:38;87.93;;;38.00;;
18822;SDS011;9540;51.550;7.980;2023-02-12T07:36:07;88.43;;;37.38;;
18822;SDS011;9540;51.550;7.980;2023-02-12T07:38:36;91.82;;;37.58;;
18822;SDS011;9540;51.550;7.980;2023-02-12T07:41:06;84.65;;;36.00;;
18822;SDS011;9540;51.550;7.980;2023-02-12T07:43:36;92.93;;;37.05;;
18822;SDS011;9540;51.550;7.980;2023-02-12T07:46:07;82.78;;;36.17;;
18822;SDS011;9540;51.550;7.980;2023-02-12T07:48:36;82.68;;;35.50;;
18822;SDS011;9540;51.550;7.980;2023-02-12T07:51:04;81.20;;;36.30;;
18822;SDS011;9540;51.550;7.980;2023-02-12T07:53:32;79.97;;;33.40;;
18822;SDS011;9540;51.550;7.980;2023-02-12T07:56:03;78.68;;;33.72;;
18822;SDS011;9540;51.550;7.980;2023-02-12T07:58:36;86.35;;;36.47;;
18822;SDS011;9540;51.550;7.980;2023-02-12T08:01:11;75.47;;;32.95;;
18822;SDS011;9540;51.550;7.980;2023-02-12T08:03:40;71.18;;;30.20;;
18822;SDS011;9540;51.550;7.980;2023-02-12T08:06:08;65.65;;;30.63;;
18822;SDS011;9540;51.550;7.980;2023-02-12T08:08:36;68.95;;;30.88;;
18822;SDS011;9540;51.550;7.980;2023-02-12T08:11:04;72.38;;;34.80;;
18822;SDS011;9540;51.550;7.980;2023-02-12T08:13:33;69.35;;;31.20;;
18822;SDS011;9540;51.550;7.980;2023-02-12T08:16:01;56.63;;;27.63;;
18822;SDS011;9540;51.550;7.980;2023-02-12T08:18:30;61.03;;;29.58;;
18822;SDS011;9540;51.550;7.980;2023-02-12T08:21:02;53.08;;;25.67;;
18822;SDS011;9540;51.550;7.980;2023-02-12T08:23:30;56.13;;;27.02;;
18822;SDS011;9540;51.550;7.980;2023-02-12T08:26:03;59.72;;;28.80;;
18822;SDS011;9540;51.550;7.980;2023-02-12T08:28:37;55.63;;;26.60;;
18822;SDS011;9540;51.550;7.980;2023-02-12T08:31:07;58.67;;;29.02;;
18822;SDS011;9540;51.550;7.980;2023-02-12T08:33:35;56.63;;;26.30;;
18822;SDS011;9540;51.550;7.980;2023-02-12T08:36:03;54.45;;;26.00;;
18822;SDS011;9540;51.550;7.980;2023-02-12T08:38:33;60.35;;;27.42;;
18822;SDS011;9540;51.550;7.980;2023-02-12T08:41:01;62.63;;;29.98;;
18822;SDS011;9540;51.550;7.980;2023-02-12T08:43:30;54.70;;;27.60;;
18822;SDS011;9540;51.550;7.980;2023-02-12T08:46:02;49.85;;;26.02;;
18822;SDS011;9540;51.550;7.980;2023-02-12T08:48:30;53.95;;;25.55;;
18822;SDS011;9540;51.550;7.980;2023-02-12T08:51:05;50.55;;;25.77;;
18822;SDS011;9540;51.550;7.980;2023-02-12T08:53:37;52.55;;;26.10;;
18822;SDS011;9540;51.550;7.980;2023-02-12T08:56:05;49.92;;;25.17;;
18822;SDS011;9540;51.550;7.980;2023-02-12T08:58:33;54.17;;;26.67;;
18822;SDS011;9540;51.550;7.980;2023-02-12T09:01:03;47.83;;;26.05;;
18822;SDS011;9540;51.550;7.980;2023-02-12T09:03:34;48.28;;;24.10;;
18822;SDS011;9540;51.550;7.980;2023-02-12T09:06:01;52.85;;;24.38;;
18822;SDS011;9540;51.550;7.980;2023-02-12T09:08:29;49.60;;;24.90;;
18822;SDS011;9540;51.550;7.980;2023-02-12T09:10:56;53.15;;;26.58;;
18822;SDS011;9540;51.550;7.980;2023-02-12T09:13:23;46.85;;;22.70;;
18822;SDS011;9540;51.550;7.980;2023-02-12T09:15:50;49.13;;;23.35;;
18822;SDS011;9540;51.550;7.980;2023-02-12T09:18:19;50.75;;;24.55;;
18822;SDS011;9540;51.550;7.980;2023-02-12T09:20:46;51.35;;;25.27;;
18822;SDS011;9540;51.550;7.980;2023-02-12T09:23:13;43.50;;;23.00;;
18822;SDS011;9540;51.550;7.980;2023-02-12T09:25:41;49.35;;;23.95;;
18822;SDS011;9540;51.550;7.980;2023-02-12T09:28:10;53.00;;;26.27;;
18822;SDS011;9540;51.550;7.980;2023-02-12T09:30:38;64.18;;;31.13;;
18822;SDS011;9540;51.550;7.980;2023-02-12T09:33:06;51.90;;;27.60;;
18822;SDS011;9540;51.550;7.980;2023-02-12T09:35:36;50.97;;;25.55;;
18822;SDS011;9540;51.550;7.980;2023-02-12T09:38:05;51.67;;;24.92;;
18822;SDS011;9540;51.550;7.980;2023-02-12T09:40:38;52.05;;;25.45;;
18822;SDS011;9540;51.550;7.980;2023-02-12T09:43:16;45.25;;;24.52;;
18822;SDS011;9540;51.550;7.980;2023-02-12T09:45:51;50.05;;;24.42;;
18822;SDS011;9540;51.550;7.980;2023-02-12T09:51:14;56.03;;;28.13;;
18822;SDS011;9540;51.550;7.980;2023-02-12T09:53:42;54.20;;;27.60;;
18822;SDS011;9540;51.550;7.980;2023-02-12T09:56:14;53.50;;;27.45;;
18822;SDS011;9540;51.550;7.980;2023-02-12T09:58:45;49.67;;;25.90;;
18822;SDS011;9540;51.550;7.980;2023-02-12T10:01:16;48.13;;;26.95;;
18822;SDS011;9540;51.550;7.980;2023-02-12T10:03:45;56.25;;;27.85;;
18822;SDS011;9540;51.550;7.980;2023-02-12T10:06:16;54.85;;;29.10;;
18822;SDS011;9540;51.550;7.980;2023-02-12T10:08:51;54.95;;;27.70;;
18822;SDS011;9540;51.550;7.980;2023-02-12T10:11:32;51.22;;;27.70;;
18822;SDS011;9540;51.550;7.980;2023-02-12T10:14:23;59.60;;;28.95;;
18822;SDS011;9540;51.550;7.980;2023-02-12T10:17:17;55.10;;;27.40;;
18822;SDS011;9540;51.550;7.980;2023-02-12T10:22:59;46.53;;;23.33;;
18822;SDS011;9540;51.550;7.980;2023-02-12T10:25:39;46.92;;;23.58;;
18822;SDS011;9540;51.550;7.980;2023-02-12T10:28:14;46.00;;;23.52;;
18822;SDS011;9540;51.550;7.980;2023-02-12T10:30:47;50.88;;;26.77;;
18822;SDS011;9540;51.550;7.980;2023-02-12T10:33:18;40.47;;;22.05;;
18822;SDS011;9540;51.550;7.980;2023-02-12T10:35:52;48.47;;;24.92;;
18822;SDS011;9540;51.550;7.980;2023-02-12T10:38:24;38.25;;;22.40;;
18822;SDS011;9540;51.550;7.980;2023-02-12T10:40:55;42.30;;;21.92;;
18822;SDS011;9540;51.550;7.980;2023-02-12T10:43:26;38.92;;;22.27;;
18822;SDS011;9540;51.550;7.980;2023-02-12T10:45:54;46.47;;;23.73;;
18822;SDS011;9540;51.550;7.980;2023-02-12T10:48:21;47.60;;;23.65;;
18822;SDS011;9540;51.550;7.980;2023-02-12T10:50:56;42.92;;;22.42;;
18822;SDS011;9540;51.550;7.980;2023-02-12T10:53:33;37.95;;;21.20;;
18822;SDS011;9540;51.550;7.980;2023-02-12T10:58:51;36.97;;;20.98;;
18822;SDS011;9540;51.550;7.980;2023-02-12T11:01:22;36.08;;;21.88;;
18822;SDS011;9540;51.550;7.980;2023-02-12T11:03:52;43.60;;;21.65;;
18822;SDS011;9540;51.550;7.980;2023-02-12T11:06:20;42.30;;;21.73;;
18822;SDS011;9540;51.550;7.980;2023-02-12T11:08:51;37.20;;;21.67;;
18822;SDS011;9540;51.550;7.980;2023-02-12T11:11:20;34.92;;;21.05;;
18822;SDS011;9540;51.550;7.980;2023-02-12T11:13:52;37.35;;;21.00;;
18822;SDS011;9540;51.550;7.980;2023-02-12T11:16:27;36.10;;;20.58;;
18822;SDS011;9540;51.550;7.980;2023-02-12T11:18:57;37.55;;;19.90;;
18822;SDS011;9540;51.550;7.980;2023-02-12T11:21:29;34.00;;;19.70;;
18822;SDS011;9540;51.550;7.980;2023-02-12T11:23:57;31.33;;;18.52;;
18822;SDS011;9540;51.550;7.980;2023-02-12T11:27:19;40.72;;;19.75;;
18822;SDS011;9540;51.550;7.980;2023-02-12T11:30:03;36.25;;;19.73;;
18822;SDS011;9540;51.550;7.980;2023-02-12T11:32:39;36.22;;;20.48;;
18822;SDS011;9540;51.550;7.980;2023-02-12T11:35:11;36.40;;;20.17;;
18822;SDS011;9540;51.550;7.980;2023-02-12T11:37:42;35.20;;;19.63;;
18822;SDS011;9540;51.550;7.980;2023-02-12T11:40:16;35.70;;;19.55;;
18822;SDS011;9540;51.550;7.980;2023-02-12T11:42:47;39.67;;;22.02;;
18822;SDS011;9540;51.550;7.980;2023-02-12T11:45:17;33.05;;;18.40;;
18822;SDS011;9540;51.550;7.980;2023-02-12T11:47:46;29.15;;;18.33;;
18822;SDS011;9540;51.550;7.980;2023-02-12T11:50:21;25.30;;;15.15;;
18822;SDS011;9540;51.550;7.980;2023-02-12T11:52:52;28.98;;;16.42;;
18822;SDS011;9540;51.550;7.980;2023-02-12T11:55:26;25.58;;;16.30;;
18822;SDS011;9540;51.550;7.980;2023-02-12T11:58:00;38.88;;;19.05;;
18822;SDS011;9540;51.550;7.980;2023-02-12T12:00:31;31.88;;;17.25;;
18822;SDS011;9540;51.550;7.980;2023-02-12T12:03:03;23.42;;;15.57;;
18822;SDS011;9540;51.550;7.980;2023-02-12T12:05:37;28.42;;;15.88;;
18822;SDS011;9540;51.550;7.980;2023-02-12T12:08:12;30.13;;;15.48;;
18822;SDS011;9540;51.550;7.980;2023-02-12T12:10:47;32.53;;;16.92;;
18822;SDS011;9540;51.550;7.980;2023-02-12T12:13:20;33.05;;;17.63;;
18822;SDS011;9540;51.550;7.980;2023-02-12T12:15:51;31.83;;;19.92;;
18822;SDS011;9540;51.550;7.980;2023-02-12T12:18:43;30.48;;;17.05;;
18822;SDS011;9540;51.550;7.980;2023-02-12T12:21:33;30.73;;;16.98;;
18822;SDS011;9540;51.550;7.980;2023-02-12T12:24:05;28.58;;;16.83;;
18822;SDS011;9540;51.550;7.980;2023-02-12T12:26:41;29.80;;;18.35;;
18822;SDS011;9540;51.550;7.980;2023-02-12T12:29:15;35.97;;;23.23;;
18822;SDS011;9540;51.550;7.980;2023-02-12T12:31:46;37.72;;;22.73;;
18822;SDS011;9540;51.550;7.980;2023-02-12T12:34:19;33.83;;;19.42;;
18822;SDS011;9540;51.550;7.980;2023-02-12T12:39:44;28.77;;;17.13;;
18822;SDS011;9540;51.550;7.980;2023-02-12T12:42:45;28.85;;;16.48;;
18822;SDS011;9540;51.550;7.980;2023-02-12T12:45:30;33.58;;;17.77;;
18822;SDS011;9540;51.550;7.980;2023-02-12T12:48:16;32.05;;;17.17;;
18822;SDS011;9540;51.550;7.980;2023-02-12T12:50:55;30.55;;;16.67;;
18822;SDS011;9540;51.550;7.980;2023-02-12T12:53:38;26.65;;;16.15;;
18822;SDS011;9540;51.550;7.980;2023-02-12T12:56:18;30.70;;;16.90;;
18822;SDS011;9540;51.550;7.980;2023-02-12T12:59:14;27.70;;;16.23;;
18822;SDS011;9540;51.550;7.980;2023-02-12T13:08:07;30.65;;;16.83;;
18822;SDS011;9540;51.550;7.980;2023-02-12T13:10:43;29.33;;;16.25;;
18822;SDS011;9540;51.550;7.980;2023-02-12T13:13:19;27.80;;;15.45;;
18822;SDS011;9540;51.550;7.980;2023-02-12T13:15:57;30.45;;;17.05;;
18822;SDS011;9540;51.550;7.980;2023-02-12T13:18:32;27.63;;;15.98;;
18822;SDS011;9540;51.550;7.980;2023-02-12T13:21:07;24.27;;;14.43;;
18822;SDS011;9540;51.550;7.980;2023-02-12T13:23:44;24.02;;;14.57;;
18822;SDS011;9540;51.550;7.980;2023-02-12T13:26:17;29.60;;;15.45;;
18822;SDS011;9540;51.550;7.980;2023-02-12T13:28:56;24.77;;;15.02;;
18822;SDS011;9540;51.550;7.980;2023-02-12T13:31:31;25.10;;;15.02;;
18822;SDS011;9540;51.550;7.980;2023-02-12T13:34:03;21.40;;;12.77;;
18822;SDS011;9540;51.550;7.980;2023-02-12T13:36:33;22.23;;;12.25;;
18822;SDS011;9540;51.550;7.980;2023-02-12T13:39:04;22.08;;;12.57;;
18822;SDS011;9540;51.550;7.980;2023-02-12T13:41:41;19.98;;;11.80;;
18822;SDS011;9540;51.550;7.980;2023-02-12T13:44:15;17.38;;;11.20;;
18822;SDS011;9540;51.550;7.980;2023-02-12T13:46:53;18.75;;;11.07;;
18822;SDS011;9540;51.550;7.980;2023-02-12T13:49:28;19.20;;;12.23;;
18822;SDS011;9540;51.550;7.980;2023-02-12T13:52:11;18.83;;;10.55;;
18822;SDS011;9540;51.550;7.980;2023-02-12T13:54:52;15.30;;;10.52;;
18822;SDS011;9540;51.550;7.980;2023-02-12T13:57:27;17.55;;;10.70;;
18822;SDS011;9540;51.550;7.980;2023-02-12T13:59:54;17.83;;;10.75;;
18822;SDS011;9540;51.550;7.980;2023-02-12T14:02:39;20.50;;;11.10;;
18822;SDS011;9540;51.550;7.980;2023-02-12T14:05:19;17.00;;;10.50;;
18822;SDS011;9540;51.550;7.980;2023-02-12T14:07:51;22.27;;;11.07;;
18822;SDS011;9540;51.550;7.980;2023-02-12T14:10:24;18.90;;;10.40;;
18822;SDS011;9540;51.550;7.980;2023-02-12T14:12:56;14.73;;;9.07;;
18822;SDS011;9540;51.550;7.980;2023-02-12T14:15:37;21.02;;;13.25;;
18822;SDS011;9540;51.550;7.980;2023-02-12T14:18:24;16.08;;;11.88;;
18822;SDS011;9540;51.550;7.980;2023-02-12T14:27:15;15.23;;;10.10;;
18822;SDS011;9540;51.550;7.980;2023-02-12T14:29:59;13.82;;;9.45;;
18822;SDS011;9540;51.550;7.980;2023-02-12T14:33:09;20.10;;;9.93;;
18822;SDS011;9540;51.550;7.980;2023-02-12T14:35:47;17.23;;;10.48;;
18822;SDS011;9540;51.550;7.980;2023-02-12T14:41:27;15.00;;;9.48;;
18822;SDS011;9540;51.550;7.980;2023-02-12T14:50:28;16.35;;;9.82;;
18822;SDS011;9540;51.550;7.980;2023-02-12T14:53:16;15.55;;;9.90;;
18822;SDS011;9540;51.550;7.980;2023-02-12T14:55:51;14.35;;;9.40;;
18822;SDS011;9540;51.550;7.980;2023-02-12T14:58:18;16.13;;;9.82;;
18822;SDS011;9540;51.550;7.980;2023-02-12T15:00:49;15.82;;;11.18;;
18822;SDS011;9540;51.550;7.980;2023-02-12T15:03:21;14.05;;;10.05;;
18822;SDS011;9540;51.550;7.980;2023-02-12T15:05:54;14.38;;;9.73;;
18822;SDS011;9540;51.550;7.980;2023-02-12T15:08:30;13.60;;;9.27;;
18822;SDS011;9540;51.550;7.980;2023-02-12T15:11:04;14.02;;;9.35;;
18822;SDS011;9540;51.550;7.980;2023-02-12T15:13:42;11.75;;;8.65;;
18822;SDS011;9540;51.550;7.980;2023-02-12T15:16:16;13.30;;;9.38;;
18822;SDS011;9540;51.550;7.980;2023-02-12T15:18:50;12.68;;;8.80;;
18822;SDS011;9540;51.550;7.980;2023-02-12T15:21:22;14.70;;;10.07;;
18822;SDS011;9540;51.550;7.980;2023-02-12T15:24:03;14.20;;;9.90;;
18822;SDS011;9540;51.550;7.980;2023-02-12T15:26:33;20.27;;;10.23;;
18822;SDS011;9540;51.550;7.980;2023-02-12T15:29:02;20.70;;;12.02;;
18822;SDS011;9540;51.550;7.980;2023-02-12T15:31:30;19.52;;;10.45;;
18822;SDS011;9540;51.550;7.980;2023-02-12T15:33:59;17.15;;;11.10;;
18822;SDS011;9540;51.550;7.980;2023-02-12T15:36:29;15.80;;;10.40;;
18822;SDS011;9540;51.550;7.980;2023-02-12T15:38:59;15.77;;;10.35;;
18822;SDS011;9540;51.550;7.980;2023-02-12T15:41:34;19.27;;;11.00;;